Terminal Aerodrome Forecast
Issued by NWS North Platte, NE

Home | Current Version | Previous Version | Text Only | Print | Product List | Glossary Off
Versions: 1 2 3 4 5 6 7 8 9 10 11 12 13 14 15 16 17

000
FTUS43 KLBF 230400 AAB
TAFVTN
TAF AMD
KVTN 230408Z 2304/2324 13007KT P6SM SCT020 OVC040
      TEMPO 2304/2306 -RA OVC015
     FM230600 14007KT 2SM BR OVC015
     FM230900 14009KT 4SM BR OVC007
     FM231500 14011KT P6SM OVC008=

USA.gov is the U.S. government's official web portal to all federal, state and local government web resources and services.